Time;durP1;ratioP1;P1;durP2;ratioP2;P2;SDS_P1;SDS_P2;PMS_P1;PMS_P2;Temp;Humidity;BMP_temperature;BMP_pressure;BME280_temperature;BME280_humidity;BME280_pressure;Samples;Min_cycle;Max_cycle;Signal;HPM_P1;HPM_P2
2023/07/05 00:02:14;;;;;;;;;;;22.20;99.90;;;;;;5113943;28;19989;-63
2023/07/05 00:04:39;;;;;;;;;;;22.20;99.90;;;;;;5113520;28;20454;-63
2023/07/05 00:07:05;;;;;;;;;;;22.20;99.90;;;;;;5113888;28;19985;-64
2023/07/05 00:09:31;;;;;;;;;;;22.20;99.90;;;;;;5114006;28;20057;-62
2023/07/05 00:11:56;;;;;;;;;;;22.20;99.90;;;;;;5113984;28;20010;-64
2023/07/05 00:14:22;;;;;;;;;;;22.20;99.90;;;;;;5113671;28;20339;-63
2023/07/05 00:16:48;;;;;;;;;;;22.20;99.90;;;;;;5113988;28;20046;-64
2023/07/05 00:19:13;;;;;;;;;;;22.20;99.90;;;;;;5113393;28;20115;-63
2023/07/05 00:21:39;;;;;;;;;;;22.20;99.90;;;;;;5113536;28;20037;-64
2023/07/05 00:24:04;;;;;;;;;;;22.20;99.90;;;;;;5113859;28;20350;-64
2023/07/05 00:26:30;;;;;;;;;;;22.20;99.90;;;;;;5113638;28;20332;-62
2023/07/05 00:28:55;;;;;;;;;;;22.20;99.90;;;;;;5113512;28;20104;-64
2023/07/05 00:31:21;;;;;;;;;;;22.10;99.90;;;;;;5113663;28;19989;-64
2023/07/05 00:33:47;;;;;;;;;;;22.10;99.90;;;;;;5113390;28;19984;-64
2023/07/05 00:36:13;;;;;;;;;;;22.20;99.90;;;;;;5113437;28;20126;-62
2023/07/05 00:38:38;;;;;;;;;;;22.20;99.90;;;;;;5116813;28;20103;-64
2023/07/05 00:41:04;;;;;;;;;;;22.20;99.90;;;;;;5117050;28;19989;-65
2023/07/05 00:43:30;;;;;;;;;;;22.30;99.90;;;;;;5116982;28;20077;-63
2023/07/05 00:45:56;;;;;;;;;;;22.30;99.90;;;;;;5116780;28;20020;-65
2023/07/05 00:48:40;;;;;;;;;;;22.30;99.90;;;;;;5117074;28;20082;-63
2023/07/05 00:51:13;;;;;;;;;;;22.30;99.90;;;;;;5116792;28;20046;-62
2023/07/05 00:53:39;;;;;;;;;;;22.30;99.90;;;;;;5116829;28;19996;-65
2023/07/05 00:56:09;;;;;;;;;;;22.30;99.90;;;;;;5116675;28;20078;-63
2023/07/05 00:58:35;;;;;;;;;;;22.30;99.90;;;;;;5116656;28;20067;-62
2023/07/05 01:01:01;;;;;;;;;;;22.30;99.90;;;;;;5116769;28;20020;-63
2023/07/05 01:03:27;;;;;;;;;;;22.30;99.90;;;;;;5116515;28;19984;-63
2023/07/05 01:05:55;;;;;;;;;;;22.30;99.90;;;;;;5116836;28;20396;-64
2023/07/05 01:08:21;;;;;;;;;;;22.30;99.90;;;;;;5116686;28;19985;-64
2023/07/05 01:10:50;;;;;;;;;;;22.30;99.90;;;;;;5116472;28;20023;-65
2023/07/05 01:13:21;;;;;;;;;;;22.30;99.90;;;;;;5116414;28;20028;-64
2023/07/05 01:16:02;;;;;;;;;;;22.30;99.90;;;;;;5116322;28;20541;-62
2023/07/05 01:18:34;;;;;;;;;;;22.20;99.90;;;;;;5116215;28;20011;-64
2023/07/05 01:21:06;;;;;;;;;;;22.20;99.90;;;;;;5116431;28;20079;-63
2023/07/05 01:23:34;;;;;;;;;;;22.10;99.90;;;;;;5116160;28;20014;-64
2023/07/05 01:26:12;;;;;;;;;;;22.00;99.90;;;;;;5116315;28;20021;-63
2023/07/05 01:28:37;;;;;;;;;;;22.00;99.90;;;;;;5116276;28;20035;-63
2023/07/05 01:31:15;;;;;;;;;;;22.00;99.90;;;;;;5116056;28;20024;-63
2023/07/05 01:33:49;;;;;;;;;;;22.00;99.90;;;;;;5116090;28;19996;-62
2023/07/05 01:36:15;;;;;;;;;;;22.00;99.90;;;;;;5116015;28;20036;-63
2023/07/05 01:38:41;;;;;;;;;;;22.00;99.90;;;;;;5116657;28;20446;-62
2023/07/05 01:41:07;;;;;;;;;;;21.90;99.90;;;;;;5115973;28;20027;-63
2023/07/05 01:43:35;;;;;;;;;;;21.90;99.90;;;;;;5115822;28;19985;-64
2023/07/05 01:46:15;;;;;;;;;;;21.80;99.90;;;;;;5115532;28;20066;-62
2023/07/05 01:48:42;;;;;;;;;;;21.80;99.90;;;;;;5115067;28;19989;-64
2023/07/05 01:51:10;;;;;;;;;;;21.80;99.90;;;;;;5115657;28;19985;-64
2023/07/05 01:54:02;;;;;;;;;;;21.80;99.90;;;;;;5115761;28;20510;-64
2023/07/05 01:56:51;;;;;;;;;;;21.80;99.90;;;;;;5110592;28;20054;-62
2023/07/05 01:59:18;;;;;;;;;;;21.90;99.90;;;;;;5101581;28;20054;-62
2023/07/05 02:01:44;;;;;;;;;;;22.00;99.90;;;;;;5115494;28;20071;-62
2023/07/05 02:04:11;;;;;;;;;;;22.10;99.90;;;;;;5115606;28;20007;-65
2023/07/05 02:06:37;;;;;;;;;;;22.10;99.90;;;;;;5115455;28;19991;-62
2023/07/05 02:09:03;;;;;;;;;;;22.00;99.90;;;;;;5115298;28;20411;-64
2023/07/05 02:11:28;;;;;;;;;;;22.00;99.90;;;;;;5115448;28;19984;-63
2023/07/05 02:13:54;;;;;;;;;;;22.00;99.90;;;;;;5115166;28;19991;-62
2023/07/05 02:16:20;;;;;;;;;;;22.00;99.90;;;;;;5115166;28;20037;-64
2023/07/05 02:18:45;;;;;;;;;;;22.10;99.90;;;;;;5115378;28;20453;-63
2023/07/05 02:21:11;;;;;;;;;;;22.10;99.90;;;;;;5115206;28;20362;-64
2023/07/05 02:23:37;;;;;;;;;;;22.20;99.90;;;;;;5115028;28;20439;-64
2023/07/05 02:26:04;;;;;;;;;;;22.20;99.90;;;;;;5115004;28;19996;-63
2023/07/05 02:28:30;;;;;;;;;;;22.20;99.90;;;;;;5115112;28;19999;-62
2023/07/05 02:30:56;;;;;;;;;;;22.20;99.90;;;;;;5115131;28;20358;-63
2023/07/05 02:33:21;;;;;;;;;;;22.20;99.90;;;;;;5114925;28;20076;-63
2023/07/05 02:35:48;;;;;;;;;;;22.20;99.90;;;;;;5114907;28;20053;-64
2023/07/05 02:38:13;;;;;;;;;;;22.20;99.90;;;;;;5114786;28;20004;-64
2023/07/05 02:40:39;;;;;;;;;;;22.30;99.90;;;;;;5114761;28;20000;-64
2023/07/05 02:43:04;;;;;;;;;;;22.20;99.90;;;;;;5114623;28;20080;-64
2023/07/05 02:45:31;;;;;;;;;;;22.20;99.90;;;;;;5114500;28;20387;-63
2023/07/05 02:47:57;;;;;;;;;;;22.10;99.90;;;;;;5114632;28;20028;-64
2023/07/05 02:50:23;;;;;;;;;;;22.00;99.90;;;;;;5114619;28;20403;-63
2023/07/05 02:52:49;;;;;;;;;;;21.90;99.90;;;;;;5114679;28;19989;-63
2023/07/05 02:55:14;;;;;;;;;;;21.90;99.90;;;;;;5114393;28;20431;-64
2023/07/05 02:57:40;;;;;;;;;;;21.80;99.90;;;;;;5114260;28;20000;-64
2023/07/05 03:00:08;;;;;;;;;;;21.80;99.90;;;;;;5114271;28;20127;-64
2023/07/05 03:02:34;;;;;;;;;;;21.90;99.90;;;;;;5114355;28;20056;-64
2023/07/05 03:05:06;;;;;;;;;;;21.90;99.90;;;;;;5114453;28;19988;-63
2023/07/05 03:07:32;;;;;;;;;;;21.90;99.90;;;;;;5114439;28;19993;-64
2023/07/05 03:09:58;;;;;;;;;;;21.90;99.90;;;;;;5114287;28;20395;-63
2023/07/05 03:12:23;;;;;;;;;;;21.90;99.90;;;;;;5114071;28;20077;-62
2023/07/05 03:14:51;;;;;;;;;;;21.90;99.90;;;;;;5114295;28;20073;-63
2023/07/05 03:17:16;;;;;;;;;;;21.90;99.90;;;;;;5114122;28;19989;-62
2023/07/05 03:19:42;;;;;;;;;;;21.90;99.90;;;;;;5114264;28;20102;-62
2023/07/05 03:22:07;;;;;;;;;;;22.00;99.90;;;;;;5114298;28;19988;-62
2023/07/05 03:24:33;;;;;;;;;;;22.00;99.90;;;;;;5114391;28;20423;-62
2023/07/05 03:26:58;;;;;;;;;;;22.00;99.90;;;;;;5114139;28;20353;-63
2023/07/05 03:29:24;;;;;;;;;;;22.00;99.90;;;;;;5114057;28;20380;-64
2023/07/05 03:31:49;;;;;;;;;;;22.10;99.90;;;;;;5114063;28;20325;-63
2023/07/05 03:34:15;;;;;;;;;;;22.10;99.90;;;;;;5113966;28;20035;-62
2023/07/05 03:36:41;;;;;;;;;;;22.00;99.90;;;;;;5113995;28;19991;-62
2023/07/05 03:39:06;;;;;;;;;;;22.00;99.90;;;;;;5113975;28;20011;-62
2023/07/05 03:41:32;;;;;;;;;;;22.00;99.90;;;;;;5113738;28;20014;-63
2023/07/05 03:44:00;;;;;;;;;;;22.10;99.90;;;;;;5114177;28;20079;-64
2023/07/05 03:46:26;;;;;;;;;;;22.00;99.90;;;;;;5113769;28;20114;-62
2023/07/05 03:48:52;;;;;;;;;;;22.00;99.90;;;;;;5113875;28;19997;-64
2023/07/05 03:51:18;;;;;;;;;;;22.10;99.90;;;;;;5113879;28;20371;-63
2023/07/05 03:53:48;;;;;;;;;;;22.10;99.90;;;;;;5113787;28;19989;-63
2023/07/05 03:56:14;;;;;;;;;;;22.20;99.90;;;;;;5113533;28;20008;-62
2023/07/05 03:58:40;;;;;;;;;;;22.30;99.90;;;;;;5113752;28;20008;-64
2023/07/05 04:01:22;;;;;;;;;;;22.30;99.90;;;;;;5113848;28;20037;-64
2023/07/05 04:03:48;;;;;;;;;;;22.30;99.90;;;;;;5113772;28;20031;-63
2023/07/05 04:06:15;;;;;;;;;;;22.40;99.90;;;;;;5113796;28;19985;-63
2023/07/05 04:08:40;;;;;;;;;;;22.40;99.90;;;;;;5113812;28;20084;-64
2023/07/05 04:11:06;;;;;;;;;;;22.40;99.90;;;;;;5113737;28;20067;-63
2023/07/05 04:13:32;;;;;;;;;;;22.40;99.90;;;;;;5117203;28;20497;-64
2023/07/05 04:16:01;;;;;;;;;;;22.30;99.90;;;;;;5117949;28;19989;-64
2023/07/05 04:18:27;;;;;;;;;;;22.20;99.90;;;;;;5117681;28;20362;-64
2023/07/05 04:20:53;;;;;;;;;;;22.20;99.90;;;;;;5117755;28;19993;-62
2023/07/05 04:23:18;;;;;;;;;;;22.20;99.90;;;;;;5117783;28;20392;-62
2023/07/05 04:25:44;;;;;;;;;;;22.20;99.90;;;;;;5117205;28;19985;-64
2023/07/05 04:28:09;;;;;;;;;;;22.20;99.90;;;;;;5117390;28;20075;-62
2023/07/05 04:30:35;;;;;;;;;;;22.30;99.90;;;;;;5117357;28;19984;-63
2023/07/05 04:33:00;;;;;;;;;;;22.30;99.90;;;;;;5117267;28;19985;-64
2023/07/05 04:35:26;;;;;;;;;;;22.30;99.90;;;;;;5117181;28;19991;-62
2023/07/05 04:37:51;;;;;;;;;;;22.30;99.90;;;;;;5117151;28;19989;-64
2023/07/05 04:40:17;;;;;;;;;;;22.20;99.90;;;;;;5117057;28;19989;-64
2023/07/05 04:42:43;;;;;;;;;;;22.20;99.90;;;;;;5117040;28;19985;-64
2023/07/05 04:45:09;;;;;;;;;;;22.30;99.90;;;;;;5116805;28;19996;-63
2023/07/05 04:47:34;;;;;;;;;;;22.30;99.90;;;;;;5117063;28;19992;-64
2023/07/05 04:50:00;;;;;;;;;;;22.30;99.90;;;;;;5117151;28;20354;-64
2023/07/05 04:52:25;;;;;;;;;;;22.30;99.90;;;;;;5116949;28;20336;-64
2023/07/05 04:54:52;;;;;;;;;;;22.10;99.90;;;;;;5116707;28;19988;-62
2023/07/05 04:57:17;;;;;;;;;;;22.10;99.90;;;;;;5116702;28;20378;-64
2023/07/05 04:59:43;;;;;;;;;;;22.20;99.90;;;;;;5116706;28;20009;-64
2023/07/05 05:02:10;;;;;;;;;;;22.20;99.90;;;;;;5116850;28;19988;-64
2023/07/05 05:04:35;;;;;;;;;;;22.30;99.90;;;;;;5116600;28;19989;-63
2023/07/05 05:07:01;;;;;;;;;;;22.40;99.90;;;;;;5116190;28;19995;-64
2023/07/05 05:09:27;;;;;;;;;;;22.40;99.90;;;;;;5115621;28;20361;-63
2023/07/05 05:11:52;;;;;;;;;;;22.40;99.90;;;;;;5115724;28;19985;-64
2023/07/05 05:14:18;;;;;;;;;;;22.40;99.90;;;;;;5116396;28;19988;-64
2023/07/05 05:16:43;;;;;;;;;;;22.50;99.90;;;;;;5116298;28;20095;-62
2023/07/05 05:19:09;;;;;;;;;;;22.60;99.90;;;;;;5116358;28;20004;-64
2023/07/05 05:21:34;;;;;;;;;;;22.60;99.90;;;;;;5115364;28;19989;-63
2023/07/05 05:24:00;;;;;;;;;;;22.70;99.90;;;;;;5114909;28;19985;-64
2023/07/05 05:26:25;;;;;;;;;;;22.70;99.90;;;;;;5116273;28;20079;-64
2023/07/05 05:28:51;;;;;;;;;;;22.70;99.90;;;;;;5115951;28;20196;-62
2023/07/05 05:31:17;;;;;;;;;;;22.70;99.90;;;;;;5116025;28;19985;-62
2023/07/05 05:33:42;;;;;;;;;;;22.80;99.90;;;;;;5116048;28;20038;-64
2023/07/05 05:36:08;;;;;;;;;;;22.80;99.90;;;;;;5115759;28;19989;-62
2023/07/05 05:38:34;;;;;;;;;;;22.90;99.90;;;;;;5115695;28;20099;-64
2023/07/05 05:41:01;;;;;;;;;;;23.00;99.90;;;;;;5115903;28;20023;-62
2023/07/05 05:43:26;;;;;;;;;;;23.20;99.90;;;;;;5115702;28;19992;-63
2023/07/05 05:45:52;;;;;;;;;;;23.30;99.90;;;;;;5115685;28;20020;-63
2023/07/05 05:48:17;;;;;;;;;;;23.10;99.90;;;;;;5115828;28;20057;-64
2023/07/05 05:50:43;;;;;;;;;;;23.10;99.90;;;;;;5115846;28;19989;-64
2023/07/05 05:53:10;;;;;;;;;;;23.20;99.90;;;;;;5115335;28;19984;-63
2023/07/05 05:55:37;;;;;;;;;;;23.40;99.90;;;;;;5115542;28;20008;-63
2023/07/05 05:58:03;;;;;;;;;;;23.40;99.90;;;;;;5115327;28;20005;-63
2023/07/05 06:00:28;;;;;;;;;;;23.30;99.90;;;;;;5115350;28;19995;-64
2023/07/05 06:02:56;;;;;;;;;;;23.30;99.90;;;;;;5115497;28;20067;-62
2023/07/05 06:05:21;;;;;;;;;;;23.30;99.90;;;;;;5115311;28;20514;-63
2023/07/05 06:07:47;;;;;;;;;;;23.50;99.90;;;;;;5115088;28;20079;-63
2023/07/05 06:10:12;;;;;;;;;;;23.70;99.90;;;;;;5115374;28;20006;-63
2023/07/05 06:12:41;;;;;;;;;;;23.80;99.90;;;;;;5115206;28;20347;-62
2023/07/05 06:15:08;;;;;;;;;;;24.00;99.90;;;;;;5114444;28;19992;-64
2023/07/05 06:17:34;;;;;;;;;;;24.00;99.90;;;;;;5115377;28;19992;-62
2023/07/05 06:19:59;;;;;;;;;;;24.10;99.90;;;;;;5115084;28;20095;-63
2023/07/05 06:22:26;;;;;;;;;;;24.20;99.90;;;;;;5115006;28;20000;-62
2023/07/05 06:24:51;;;;;;;;;;;24.30;99.90;;;;;;5114978;28;20427;-64
2023/07/05 06:27:17;;;;;;;;;;;24.60;99.90;;;;;;5115283;28;19988;-63
2023/07/05 06:29:42;;;;;;;;;;;24.80;99.90;;;;;;5114983;28;19996;-64
2023/07/05 06:32:08;;;;;;;;;;;25.00;99.90;;;;;;5113950;28;20021;-62
2023/07/05 06:34:33;;;;;;;;;;;25.10;98.70;;;;;;5114328;28;20428;-62
2023/07/05 06:36:59;;;;;;;;;;;25.20;97.90;;;;;;5114559;28;20050;-63
2023/07/05 06:39:24;;;;;;;;;;;25.30;97.30;;;;;;5114536;28;20031;-63
2023/07/05 06:41:50;;;;;;;;;;;25.40;96.80;;;;;;5114708;28;19988;-64
2023/07/05 06:44:15;;;;;;;;;;;25.40;96.60;;;;;;5114725;28;19992;-63
2023/07/05 06:46:41;;;;;;;;;;;25.30;97.60;;;;;;5114273;28;20024;-62
2023/07/05 06:49:07;;;;;;;;;;;25.30;97.00;;;;;;5114577;28;19992;-63
2023/07/05 06:51:32;;;;;;;;;;;25.20;97.40;;;;;;5114304;28;19984;-62
2023/07/05 06:53:58;;;;;;;;;;;25.50;96.50;;;;;;5114501;28;19999;-64
2023/07/05 06:56:23;;;;;;;;;;;25.80;96.70;;;;;;5096335;28;20139;-62
2023/07/05 06:58:49;;;;;;;;;;;25.90;95.70;;;;;;5114424;28;20004;-61
2023/07/05 07:01:14;;;;;;;;;;;25.90;94.90;;;;;;5114303;28;20022;-62
2023/07/05 07:03:40;;;;;;;;;;;26.10;95.50;;;;;;5114469;28;20469;-62
2023/07/05 07:06:06;;;;;;;;;;;26.20;94.80;;;;;;5114103;28;20008;-64
2023/07/05 07:08:37;;;;;;;;;;;26.10;94.20;;;;;;5113648;28;19988;-63
2023/07/05 07:11:03;;;;;;;;;;;26.00;94.70;;;;;;5113950;28;19996;-64
2023/07/05 07:13:29;;;;;;;;;;;26.00;94.90;;;;;;5114239;28;19985;-62
2023/07/05 07:16:08;;;;;;;;;;;26.00;94.90;;;;;;5114150;28;19989;-63
2023/07/05 07:18:36;;;;;;;;;;;26.00;95.30;;;;;;5113775;28;20008;-65
2023/07/05 07:21:02;;;;;;;;;;;26.00;94.50;;;;;;5114399;28;20091;-62
2023/07/05 07:23:27;;;;;;;;;;;26.00;95.00;;;;;;5114030;28;20020;-64
2023/07/05 07:26:10;;;;;;;;;;;26.00;94.50;;;;;;5114182;28;20447;-62
2023/07/05 07:28:35;;;;;;;;;;;26.10;94.70;;;;;;5095795;28;20406;-63
2023/07/05 07:31:15;;;;;;;;;;;26.40;94.90;;;;;;5113888;28;20081;-64
2023/07/05 07:33:40;;;;;;;;;;;26.70;93.70;;;;;;5113853;28;19985;-64
2023/07/05 07:36:07;;;;;;;;;;;26.80;94.50;;;;;;5113900;28;19991;-62
2023/07/05 07:38:33;;;;;;;;;;;26.90;92.70;;;;;;5113339;28;20459;-64
2023/07/05 07:40:58;;;;;;;;;;;27.20;92.50;;;;;;5113341;28;20015;-62
2023/07/05 07:43:24;;;;;;;;;;;27.40;93.60;;;;;;5113907;28;19996;-63
2023/07/05 07:45:49;;;;;;;;;;;27.70;91.60;;;;;;5113506;28;20022;-62
2023/07/05 07:48:15;;;;;;;;;;;28.60;90.60;;;;;;5117050;28;20035;-63
2023/07/05 07:50:47;;;;;;;;;;;30.70;85.30;;;;;;5118380;28;20470;-65
2023/07/05 07:53:13;;;;;;;;;;;32.40;77.00;;;;;;5118024;28;20514;-64
2023/07/05 07:55:38;;;;;;;;;;;33.80;70.00;;;;;;5118239;28;20032;-62
2023/07/05 07:58:04;;;;;;;;;;;35.10;63.90;;;;;;5118134;28;20012;-62
2023/07/05 08:00:31;;;;;;;;;;;34.50;61.50;;;;;;5117875;28;20079;-62
2023/07/05 08:02:56;;;;;;;;;;;34.10;62.10;;;;;;5117693;28;19992;-65
2023/07/05 08:05:23;;;;;;;;;;;35.10;62.40;;;;;;5117971;28;19988;-63
2023/07/05 08:07:49;;;;;;;;;;;35.90;62.10;;;;;;5117763;28;19985;-64
2023/07/05 08:10:15;;;;;;;;;;;36.40;57.50;;;;;;5117754;28;19989;-63
2023/07/05 08:12:40;;;;;;;;;;;37.00;57.00;;;;;;5117816;28;19992;-64
2023/07/05 08:15:06;;;;;;;;;;;37.30;55.00;;;;;;5117511;28;19989;-64
2023/07/05 08:17:32;;;;;;;;;;;37.70;51.60;;;;;;5117768;28;20079;-64
2023/07/05 08:19:58;;;;;;;;;;;37.60;52.50;;;;;;5117678;28;20004;-64
2023/07/05 08:22:23;;;;;;;;;;;37.80;52.50;;;;;;5117399;28;20397;-64
2023/07/05 08:24:50;;;;;;;;;;;38.00;50.10;;;;;;5117603;28;20045;-65
2023/07/05 08:27:16;;;;;;;;;;;37.90;50.40;;;;;;5117639;28;19989;-63
2023/07/05 08:29:41;;;;;;;;;;;37.00;52.10;;;;;;5117412;28;20003;-65
2023/07/05 08:32:07;;;;;;;;;;;37.00;52.80;;;;;;5117102;28;19984;-63
2023/07/05 08:34:32;;;;;;;;;;;37.20;52.20;;;;;;5117269;28;20048;-64
2023/07/05 08:36:58;;;;;;;;;;;38.00;51.20;;;;;;5117236;28;20442;-62
2023/07/05 08:39:24;;;;;;;;;;;38.30;49.20;;;;;;5117039;28;20005;-63
2023/07/05 08:42:15;;;;;;;;;;;38.20;50.50;;;;;;5117368;28;20079;-65
2023/07/05 08:44:43;;;;;;;;;;;38.40;50.40;;;;;;5117280;28;19989;-62
2023/07/05 08:47:11;;;;;;;;;;;38.70;50.30;;;;;;5116614;28;20113;-64
2023/07/05 08:49:42;;;;;;;;;;;39.00;50.30;;;;;;5117077;28;20399;-64
2023/07/05 08:52:34;;;;;;;;;;;39.30;50.80;;;;;;5116907;28;19992;-63
2023/07/05 08:55:02;;;;;;;;;;;39.50;47.30;;;;;;5111749;28;20446;-63
2023/07/05 08:57:39;;;;;;;;;;;38.60;48.50;;;;;;5116698;28;20008;-64
2023/07/05 09:00:11;;;;;;;;;;;38.90;49.20;;;;;;5115542;28;20085;-64
2023/07/05 09:02:37;;;;;;;;;;;39.00;48.60;;;;;;5115953;28;20450;-62
2023/07/05 09:05:04;;;;;;;;;;;38.90;48.70;;;;;;5116153;28;20067;-62
2023/07/05 09:07:59;;;;;;;;;;;39.10;47.30;;;;;;5116134;28;19989;-62
2023/07/05 09:10:28;;;;;;;;;;;38.40;48.20;;;;;;5086828;28;19995;-64
2023/07/05 09:13:00;;;;;;;;;;;37.60;48.00;;;;;;5116036;28;19984;-64
2023/07/05 09:15:31;;;;;;;;;;;37.70;49.70;;;;;;5116015;28;20328;-63
2023/07/05 09:18:20;;;;;;;;;;;38.40;48.40;;;;;;5116463;28;19984;-64
2023/07/05 09:20:51;;;;;;;;;;;38.80;46.30;;;;;;5096968;28;20019;-64
2023/07/05 09:23:22;;;;;;;;;;;38.20;49.20;;;;;;5116448;28;20079;-63
2023/07/05 09:25:49;;;;;;;;;;;37.60;47.60;;;;;;5116534;28;19988;-63
2023/07/05 09:28:23;;;;;;;;;;;37.60;48.40;;;;;;5116361;28;20346;-62
2023/07/05 09:30:49;;;;;;;;;;;36.60;48.80;;;;;;5116032;28;19984;-65
2023/07/05 09:33:20;;;;;;;;;;;36.00;50.50;;;;;;5116446;28;20100;-64
2023/07/05 09:35:46;;;;;;;;;;;36.30;49.70;;;;;;5116359;28;20027;-64
2023/07/05 09:38:19;;;;;;;;;;;36.60;49.00;;;;;;5115947;28;19993;-63
2023/07/05 09:40:47;;;;;;;;;;;37.00;54.50;;;;;;5116127;28;19989;-64
2023/07/05 09:43:12;;;;;;;;;;;37.50;50.90;;;;;;5116018;28;20038;-63
2023/07/05 09:45:39;;;;;;;;;;;37.40;50.40;;;;;;5115500;28;20020;-64
2023/07/05 09:48:05;;;;;;;;;;;37.70;47.90;;;;;;5115899;28;19995;-64
2023/07/05 09:50:31;;;;;;;;;;;37.20;49.30;;;;;;5115945;28;19984;-62
2023/07/05 09:53:17;;;;;;;;;;;36.60;49.10;;;;;;5115726;28;19984;-65
2023/07/05 09:56:02;;;;;;;;;;;36.30;50.10;;;;;;5115773;28;19989;-64
2023/07/05 09:58:27;;;;;;;;;;;36.50;48.40;;;;;;5115592;28;20005;-62
2023/07/05 10:00:53;;;;;;;;;;;37.00;48.10;;;;;;5115648;28;19992;-62
2023/07/05 10:03:19;;;;;;;;;;;37.40;48.00;;;;;;5115594;28;19992;-64
2023/07/05 10:05:52;;;;;;;;;;;37.50;48.40;;;;;;5115371;28;20041;-63
2023/07/05 10:08:21;;;;;;;;;;;37.60;47.80;;;;;;5115452;28;20028;-63
2023/07/05 10:10:48;;;;;;;;;;;38.00;48.90;;;;;;5114751;28;20438;-62
2023/07/05 10:13:16;;;;;;;;;;;38.40;47.50;;;;;;5115451;28;19989;-64
2023/07/05 10:15:43;;;;;;;;;;;38.30;49.50;;;;;;5115637;28;20462;-63
2023/07/05 10:18:23;;;;;;;;;;;38.50;47.30;;;;;;5115460;28;20042;-64
2023/07/05 10:20:49;;;;;;;;;;;38.90;47.20;;;;;;5115481;28;19992;-62
2023/07/05 10:23:18;;;;;;;;;;;38.20;45.20;;;;;;5115239;28;20443;-63
2023/07/05 10:25:44;;;;;;;;;;;38.00;46.80;;;;;;5115085;28;19984;-63
2023/07/05 10:28:14;;;;;;;;;;;38.20;46.70;;;;;;5115014;28;20133;-64
2023/07/05 10:30:50;;;;;;;;;;;38.00;47.40;;;;;;5115052;28;20355;-63
2023/07/05 10:33:20;;;;;;;;;;;37.60;45.70;;;;;;5115251;28;19989;-63
2023/07/05 10:36:06;;;;;;;;;;;37.80;46.40;;;;;;5114899;28;19989;-62
2023/07/05 10:38:33;;;;;;;;;;;38.20;46.50;;;;;;5089869;28;20035;-64
2023/07/05 10:41:25;;;;;;;;;;;38.30;45.70;;;;;;5114835;28;19992;-62
2023/07/05 10:44:05;;;;;;;;;;;38.40;48.00;;;;;;5103221;28;19988;-64
2023/07/05 10:46:32;;;;;;;;;;;38.50;49.10;;;;;;5114623;28;20070;-63
2023/07/05 10:48:58;;;;;;;;;;;38.40;44.20;;;;;;5114645;28;19993;-62
2023/07/05 10:51:25;;;;;;;;;;;37.30;44.60;;;;;;5114637;28;20046;-65
2023/07/05 10:53:59;;;;;;;;;;;36.70;48.50;;;;;;5114609;28;19984;-63
2023/07/05 10:56:29;;;;;;;;;;;36.10;47.40;;;;;;5114264;28;20007;-63
2023/07/05 10:59:00;;;;;;;;;;;36.20;51.30;;;;;;5114400;28;20011;-64
2023/07/05 11:01:28;;;;;;;;;;;36.80;49.30;;;;;;5114615;28;19992;-63
2023/07/05 11:03:56;;;;;;;;;;;36.80;48.50;;;;;;5104118;28;19993;-65
2023/07/05 11:06:22;;;;;;;;;;;36.70;45.70;;;;;;5092293;28;19989;-64
2023/07/05 11:08:48;;;;;;;;;;;36.30;48.10;;;;;;5093041;28;19989;-62
2023/07/05 11:11:19;;;;;;;;;;;36.70;50.60;;;;;;5093886;28;19992;-63
2023/07/05 11:13:45;;;;;;;;;;;37.30;48.40;;;;;;5094200;28;19992;-65
2023/07/05 11:16:16;;;;;;;;;;;37.60;46.20;;;;;;5093803;28;19985;-63
2023/07/05 11:18:45;;;;;;;;;;;37.90;47.90;;;;;;5093713;28;20005;-64
2023/07/05 11:21:29;;;;;;;;;;;38.40;46.50;;;;;;5093668;28;20008;-65
2023/07/05 11:23:55;;;;;;;;;;;38.20;45.90;;;;;;5093903;28;19996;-63
2023/07/05 11:26:31;;;;;;;;;;;37.90;46.60;;;;;;5093022;28;19985;-62
2023/07/05 11:28:56;;;;;;;;;;;37.40;48.50;;;;;;5092326;28;20038;-64
2023/07/05 11:31:28;;;;;;;;;;;37.50;46.40;;;;;;5092732;28;20359;-63
2023/07/05 11:34:11;;;;;;;;;;;37.20;46.20;;;;;;5093001;28;19986;-64
2023/07/05 11:36:39;;;;;;;;;;;36.70;47.30;;;;;;5092764;28;20046;-62
2023/07/05 11:39:06;;;;;;;;;;;36.00;47.10;;;;;;5093680;28;20011;-64
2023/07/05 11:41:34;;;;;;;;;;;35.60;47.70;;;;;;5093571;28;19997;-62
2023/07/05 11:44:26;;;;;;;;;;;35.10;49.60;;;;;;5091938;28;20063;-62
2023/07/05 11:46:52;;;;;;;;;;;35.00;49.10;;;;;;5088874;28;20379;-61
2023/07/05 11:49:21;;;;;;;;;;;34.70;48.50;;;;;;5092591;28;20076;-62
2023/07/05 11:51:49;;;;;;;;;;;35.10;51.50;;;;;;5084397;28;19989;-63
2023/07/05 11:54:17;;;;;;;;;;;35.50;50.10;;;;;;5091634;28;19993;-63
2023/07/05 11:56:44;;;;;;;;;;;36.10;50.50;;;;;;5091732;28;20036;-62
2023/07/05 11:59:11;;;;;;;;;;;36.30;51.80;;;;;;5091489;28;20011;-63
2023/07/05 12:01:38;;;;;;;;;;;36.20;48.80;;;;;;5091725;28;20345;-62
2023/07/05 12:04:06;;;;;;;;;;;36.10;49.30;;;;;;5092687;28;19988;-62
2023/07/05 12:06:42;;;;;;;;;;;35.90;47.20;;;;;;5093051;28;20005;-61
2023/07/05 12:09:14;;;;;;;;;;;35.70;48.20;;;;;;5093423;28;20401;-61
2023/07/05 12:11:40;;;;;;;;;;;35.20;47.80;;;;;;5093403;28;19989;-61
2023/07/05 12:14:09;;;;;;;;;;;34.80;50.10;;;;;;5093547;28;19993;-61
2023/07/05 12:16:35;;;;;;;;;;;34.80;50.70;;;;;;5093614;28;19989;-63
2023/07/05 12:19:01;;;;;;;;;;;35.30;48.80;;;;;;5093324;28;20367;-63
2023/07/05 12:21:31;;;;;;;;;;;35.80;49.80;;;;;;5075151;28;20348;-61
2023/07/05 12:23:56;;;;;;;;;;;36.30;46.70;;;;;;5093198;28;20084;-63
2023/07/05 12:26:34;;;;;;;;;;;36.70;48.00;;;;;;5093423;28;20024;-62
2023/07/05 12:29:03;;;;;;;;;;;36.90;47.90;;;;;;5093407;28;20434;-62
2023/07/05 12:31:29;;;;;;;;;;;37.10;47.10;;;;;;5093325;28;20036;-63
2023/07/05 12:33:55;;;;;;;;;;;37.30;47.80;;;;;;5095602;28;19992;-61
2023/07/05 12:36:22;;;;;;;;;;;37.50;46.40;;;;;;5097075;28;20006;-63
2023/07/05 12:38:50;;;;;;;;;;;37.60;46.20;;;;;;5096844;28;20016;-61
2023/07/05 12:41:16;;;;;;;;;;;37.70;47.70;;;;;;5096799;28;20035;-63
2023/07/05 12:43:42;;;;;;;;;;;37.90;48.10;;;;;;5096706;28;20001;-62
2023/07/05 12:46:16;;;;;;;;;;;38.10;45.80;;;;;;5096461;28;20028;-62
2023/07/05 12:48:42;;;;;;;;;;;38.00;48.50;;;;;;5096592;28;20087;-61
2023/07/05 12:51:21;;;;;;;;;;;37.70;46.30;;;;;;5096795;28;20076;-63
2023/07/05 12:53:48;;;;;;;;;;;37.10;44.90;;;;;;5096644;28;19989;-61
2023/07/05 12:56:17;;;;;;;;;;;36.80;47.80;;;;;;5095843;28;20302;-63
2023/07/05 12:58:58;;;;;;;;;;;36.50;46.60;;;;;;5096619;28;20012;-63
2023/07/05 13:01:29;;;;;;;;;;;36.20;48.70;;;;;;5096318;28;19989;-61
2023/07/05 13:03:54;;;;;;;;;;;36.00;47.70;;;;;;5096633;28;20435;-63
2023/07/05 13:06:20;;;;;;;;;;;35.80;47.80;;;;;;5096453;28;19985;-63
2023/07/05 13:08:46;;;;;;;;;;;35.50;48.50;;;;;;5096050;28;20363;-62
2023/07/05 13:11:20;;;;;;;;;;;35.30;49.90;;;;;;5096511;28;20355;-63
2023/07/05 13:13:55;;;;;;;;;;;35.20;48.50;;;;;;5096231;28;19985;-62
2023/07/05 13:16:27;;;;;;;;;;;34.90;49.00;;;;;;5096325;28;20078;-62
2023/07/05 13:18:58;;;;;;;;;;;34.70;50.40;;;;;;5096203;28;20070;-62
2023/07/05 13:21:25;;;;;;;;;;;34.60;50.50;;;;;;5095815;28;20392;-63
2023/07/05 13:23:50;;;;;;;;;;;34.40;49.20;;;;;;5096039;28;20076;-63
2023/07/05 13:26:30;;;;;;;;;;;34.60;50.80;;;;;;5096004;28;20031;-61
2023/07/05 13:28:57;;;;;;;;;;;35.00;50.00;;;;;;5095816;28;20496;-61
2023/07/05 13:31:23;;;;;;;;;;;35.30;49.50;;;;;;5095880;28;20519;-64
2023/07/05 13:33:52;;;;;;;;;;;35.40;50.00;;;;;;5095777;28;20431;-63
2023/07/05 13:36:19;;;;;;;;;;;35.20;49.50;;;;;;5095767;28;19989;-62
2023/07/05 13:38:44;;;;;;;;;;;35.30;50.90;;;;;;5095917;28;20012;-64
2023/07/05 13:41:10;;;;;;;;;;;35.60;50.60;;;;;;5095853;28;20040;-62
2023/07/05 13:43:35;;;;;;;;;;;35.80;47.70;;;;;;5095447;28;20007;-64
2023/07/05 13:46:01;;;;;;;;;;;35.80;49.60;;;;;;5094692;28;20025;-61
2023/07/05 13:48:27;;;;;;;;;;;36.00;49.70;;;;;;5095440;28;19993;-63
2023/07/05 13:50:53;;;;;;;;;;;36.30;48.60;;;;;;5095410;28;19996;-61
2023/07/05 13:53:20;;;;;;;;;;;36.40;53.10;;;;;;5095441;28;19985;-63
2023/07/05 13:55:46;;;;;;;;;;;36.70;48.10;;;;;;5095433;28;20034;-62
2023/07/05 13:58:12;;;;;;;;;;;37.00;46.30;;;;;;5095061;28;20005;-61
2023/07/05 14:00:38;;;;;;;;;;;37.00;46.60;;;;;;5095291;28;19985;-63
2023/07/05 14:03:04;;;;;;;;;;;36.70;47.30;;;;;;5095495;28;20031;-62
2023/07/05 14:05:30;;;;;;;;;;;36.60;47.90;;;;;;5095159;28;20408;-61
2023/07/05 14:07:56;;;;;;;;;;;36.80;46.30;;;;;;5095428;28;20054;-63
2023/07/05 14:10:22;;;;;;;;;;;36.90;48.70;;;;;;5095363;28;20087;-63
2023/07/05 14:12:48;;;;;;;;;;;37.00;51.30;;;;;;5095045;28;20031;-64
2023/07/05 14:15:33;;;;;;;;;;;36.90;47.70;;;;;;5094956;28;19985;-62
2023/07/05 14:17:59;;;;;;;;;;;36.70;48.10;;;;;;5083876;28;20015;-64
2023/07/05 14:20:27;;;;;;;;;;;36.70;47.90;;;;;;5094506;28;20009;-64
2023/07/05 14:22:52;;;;;;;;;;;36.60;49.30;;;;;;5094931;28;19988;-62